sensor_id;sensor_type;location;lat;lon;timestamp;temperature;humidity
26224;DHT22;14820;48.682;8.890;2023-07-08T00:00:19;17.90;99.90
26224;DHT22;14820;48.682;8.890;2023-07-08T00:02:45;17.90;99.90
26224;DHT22;14820;48.682;8.890;2023-07-08T00:05:12;17.90;99.90
26224;DHT22;14820;48.682;8.890;2023-07-08T00:07:38;17.80;99.90
26224;DHT22;14820;48.682;8.890;2023-07-08T00:10:20;17.90;99.90
26224;DHT22;14820;48.682;8.890;2023-07-08T00:12:49;17.80;99.90
26224;DHT22;14820;48.682;8.890;2023-07-08T00:15:16;17.70;99.90
26224;DHT22;14820;48.682;8.890;2023-07-08T00:17:42;17.80;99.90
26224;DHT22;14820;48.682;8.890;2023-07-08T00:20:38;17.70;99.90
26224;DHT22;14820;48.682;8.890;2023-07-08T00:23:04;17.60;99.90
26224;DHT22;14820;48.682;8.890;2023-07-08T00:25:30;17.50;99.90
26224;DHT22;14820;48.682;8.890;2023-07-08T00:27:56;17.50;99.90
26224;DHT22;14820;48.682;8.890;2023-07-08T00:30:26;17.40;99.90
26224;DHT22;14820;48.682;8.890;2023-07-08T00:32:54;17.40;99.90
26224;DHT22;14820;48.682;8.890;2023-07-08T00:35:21;17.40;99.90
26224;DHT22;14820;48.682;8.890;2023-07-08T00:37:48;17.30;99.90
26224;DHT22;14820;48.682;8.890;2023-07-08T00:40:16;17.30;99.90
26224;DHT22;14820;48.682;8.890;2023-07-08T00:42:44;17.20;99.90
26224;DHT22;14820;48.682;8.890;2023-07-08T00:47:53;17.10;99.90
26224;DHT22;14820;48.682;8.890;2023-07-08T00:50:19;17.10;99.90
26224;DHT22;14820;48.682;8.890;2023-07-08T00:52:45;17.00;99.90
26224;DHT22;14820;48.682;8.890;2023-07-08T00:55:11;17.00;99.90
26224;DHT22;14820;48.682;8.890;2023-07-08T00:57:42;16.90;99.90
26224;DHT22;14820;48.682;8.890;2023-07-08T01:00:15;16.90;99.90
26224;DHT22;14820;48.682;8.890;2023-07-08T01:02:51;16.90;99.90
26224;DHT22;14820;48.682;8.890;2023-07-08T01:05:25;17.00;99.90
26224;DHT22;14820;48.682;8.890;2023-07-08T01:07:56;16.90;99.90
26224;DHT22;14820;48.682;8.890;2023-07-08T01:10:28;16.80;99.90
26224;DHT22;14820;48.682;8.890;2023-07-08T01:12:59;16.70;99.90
26224;DHT22;14820;48.682;8.890;2023-07-08T01:15:31;16.70;99.90
26224;DHT22;14820;48.682;8.890;2023-07-08T01:17:58;16.60;99.90
26224;DHT22;14820;48.682;8.890;2023-07-08T01:20:24;16.60;99.90
26224;DHT22;14820;48.682;8.890;2023-07-08T01:22:50;16.60;99.90
26224;DHT22;14820;48.682;8.890;2023-07-08T01:25:16;16.60;99.90
26224;DHT22;14820;48.682;8.890;2023-07-08T01:27:45;16.50;99.90
26224;DHT22;14820;48.682;8.890;2023-07-08T01:30:14;16.60;99.90
26224;DHT22;14820;48.682;8.890;2023-07-08T01:32:45;16.60;99.90
26224;DHT22;14820;48.682;8.890;2023-07-08T01:35:13;16.50;99.90
26224;DHT22;14820;48.682;8.890;2023-07-08T01:37:46;16.50;99.90
26224;DHT22;14820;48.682;8.890;2023-07-08T01:40:15;16.50;99.90
26224;DHT22;14820;48.682;8.890;2023-07-08T01:42:41;16.50;99.90
26224;DHT22;14820;48.682;8.890;2023-07-08T01:45:15;16.50;99.90
26224;DHT22;14820;48.682;8.890;2023-07-08T01:47:43;16.50;99.90
26224;DHT22;14820;48.682;8.890;2023-07-08T01:50:11;16.40;99.90
26224;DHT22;14820;48.682;8.890;2023-07-08T01:52:37;16.30;99.90
26224;DHT22;14820;48.682;8.890;2023-07-08T01:55:03;16.20;99.90
26224;DHT22;14820;48.682;8.890;2023-07-08T01:57:29;16.20;99.90
26224;DHT22;14820;48.682;8.890;2023-07-08T01:59:55;16.20;99.90
26224;DHT22;14820;48.682;8.890;2023-07-08T02:02:20;16.20;99.90
26224;DHT22;14820;48.682;8.890;2023-07-08T02:04:49;16.20;99.90
26224;DHT22;14820;48.682;8.890;2023-07-08T02:07:15;16.30;99.90
26224;DHT22;14820;48.682;8.890;2023-07-08T02:09:40;16.20;99.90
26224;DHT22;14820;48.682;8.890;2023-07-08T02:12:06;16.20;99.90
26224;DHT22;14820;48.682;8.890;2023-07-08T02:14:32;16.20;99.90
26224;DHT22;14820;48.682;8.890;2023-07-08T02:16:58;16.10;99.90
26224;DHT22;14820;48.682;8.890;2023-07-08T02:19:24;16.00;99.90
26224;DHT22;14820;48.682;8.890;2023-07-08T02:21:50;16.00;99.90
26224;DHT22;14820;48.682;8.890;2023-07-08T02:24:17;16.00;99.90
26224;DHT22;14820;48.682;8.890;2023-07-08T02:26:43;16.00;99.90
26224;DHT22;14820;48.682;8.890;2023-07-08T02:29:08;16.00;99.90
26224;DHT22;14820;48.682;8.890;2023-07-08T02:31:34;16.00;99.90
26224;DHT22;14820;48.682;8.890;2023-07-08T02:34:00;16.00;99.90
26224;DHT22;14820;48.682;8.890;2023-07-08T02:36:27;16.00;99.90
26224;DHT22;14820;48.682;8.890;2023-07-08T02:38:53;16.00;99.90
26224;DHT22;14820;48.682;8.890;2023-07-08T02:41:19;16.00;99.90
26224;DHT22;14820;48.682;8.890;2023-07-08T02:43:44;16.00;99.90
26224;DHT22;14820;48.682;8.890;2023-07-08T02:46:10;16.00;99.90
26224;DHT22;14820;48.682;8.890;2023-07-08T02:48:36;16.00;99.90
26224;DHT22;14820;48.682;8.890;2023-07-08T02:51:03;16.00;99.90
26224;DHT22;14820;48.682;8.890;2023-07-08T02:53:30;16.00;99.90
26224;DHT22;14820;48.682;8.890;2023-07-08T02:55:56;16.10;99.90
26224;DHT22;14820;48.682;8.890;2023-07-08T02:58:22;16.10;99.90
26224;DHT22;14820;48.682;8.890;2023-07-08T03:00:55;16.10;99.90
26224;DHT22;14820;48.682;8.890;2023-07-08T03:03:21;16.10;99.90
26224;DHT22;14820;48.682;8.890;2023-07-08T03:05:58;16.00;99.90
26224;DHT22;14820;48.682;8.890;2023-07-08T03:08:25;16.10;99.90
26224;DHT22;14820;48.682;8.890;2023-07-08T03:10:56;16.10;99.90
26224;DHT22;14820;48.682;8.890;2023-07-08T03:13:22;16.10;99.90
26224;DHT22;14820;48.682;8.890;2023-07-08T03:15:48;16.00;99.90
26224;DHT22;14820;48.682;8.890;2023-07-08T03:18:13;16.00;99.90
26224;DHT22;14820;48.682;8.890;2023-07-08T03:20:40;16.00;99.90
26224;DHT22;14820;48.682;8.890;2023-07-08T03:23:06;15.90;99.90
26224;DHT22;14820;48.682;8.890;2023-07-08T03:25:31;15.90;99.90
26224;DHT22;14820;48.682;8.890;2023-07-08T03:27:57;15.90;99.90
26224;DHT22;14820;48.682;8.890;2023-07-08T03:30:23;15.90;99.90
26224;DHT22;14820;48.682;8.890;2023-07-08T03:32:49;15.90;99.90
26224;DHT22;14820;48.682;8.890;2023-07-08T03:35:14;15.80;99.90
26224;DHT22;14820;48.682;8.890;2023-07-08T03:37:40;15.80;99.90
26224;DHT22;14820;48.682;8.890;2023-07-08T03:40:08;15.70;99.90
26224;DHT22;14820;48.682;8.890;2023-07-08T03:42:35;15.70;99.90
26224;DHT22;14820;48.682;8.890;2023-07-08T03:45:01;15.70;99.90
26224;DHT22;14820;48.682;8.890;2023-07-08T03:47:26;15.70;99.90
26224;DHT22;14820;48.682;8.890;2023-07-08T03:49:52;15.70;99.90
26224;DHT22;14820;48.682;8.890;2023-07-08T03:52:17;15.60;99.90
26224;DHT22;14820;48.682;8.890;2023-07-08T03:54:44;15.50;99.90
26224;DHT22;14820;48.682;8.890;2023-07-08T03:57:09;15.60;99.90
26224;DHT22;14820;48.682;8.890;2023-07-08T03:59:35;15.50;99.90
26224;DHT22;14820;48.682;8.890;2023-07-08T04:02:01;15.50;99.90
26224;DHT22;14820;48.682;8.890;2023-07-08T04:04:26;15.50;99.90
26224;DHT22;14820;48.682;8.890;2023-07-08T04:06:52;15.50;99.90
26224;DHT22;14820;48.682;8.890;2023-07-08T04:09:18;15.50;99.90
26224;DHT22;14820;48.682;8.890;2023-07-08T04:11:44;15.60;99.90
26224;DHT22;14820;48.682;8.890;2023-07-08T04:14:10;15.60;99.90
26224;DHT22;14820;48.682;8.890;2023-07-08T04:19:13;15.70;99.90
26224;DHT22;14820;48.682;8.890;2023-07-08T04:21:43;15.70;99.90
26224;DHT22;14820;48.682;8.890;2023-07-08T04:24:14;15.70;99.90
26224;DHT22;14820;48.682;8.890;2023-07-08T04:26:41;15.70;99.90
26224;DHT22;14820;48.682;8.890;2023-07-08T04:29:14;15.80;99.90
26224;DHT22;14820;48.682;8.890;2023-07-08T04:31:40;15.80;99.90
26224;DHT22;14820;48.682;8.890;2023-07-08T04:34:08;15.90;99.90
26224;DHT22;14820;48.682;8.890;2023-07-08T04:36:35;15.90;99.90
26224;DHT22;14820;48.682;8.890;2023-07-08T04:39:02;15.90;99.90
26224;DHT22;14820;48.682;8.890;2023-07-08T04:41:30;16.00;99.90
26224;DHT22;14820;48.682;8.890;2023-07-08T04:43:55;16.10;99.90
26224;DHT22;14820;48.682;8.890;2023-07-08T04:46:39;16.10;99.90
26224;DHT22;14820;48.682;8.890;2023-07-08T04:49:06;16.20;99.90
26224;DHT22;14820;48.682;8.890;2023-07-08T04:51:35;16.10;99.90
26224;DHT22;14820;48.682;8.890;2023-07-08T04:54:01;16.10;99.90
26224;DHT22;14820;48.682;8.890;2023-07-08T04:56:41;16.10;99.90
26224;DHT22;14820;48.682;8.890;2023-07-08T04:59:12;16.10;99.90
26224;DHT22;14820;48.682;8.890;2023-07-08T05:01:39;16.10;99.90
26224;DHT22;14820;48.682;8.890;2023-07-08T05:04:05;16.20;99.90
26224;DHT22;14820;48.682;8.890;2023-07-08T05:06:32;16.30;99.90
26224;DHT22;14820;48.682;8.890;2023-07-08T05:08:59;16.40;99.90
26224;DHT22;14820;48.682;8.890;2023-07-08T05:11:25;16.50;99.90
26224;DHT22;14820;48.682;8.890;2023-07-08T05:13:51;16.60;99.90
26224;DHT22;14820;48.682;8.890;2023-07-08T05:16:16;16.70;99.90
26224;DHT22;14820;48.682;8.890;2023-07-08T05:18:42;16.70;99.90
26224;DHT22;14820;48.682;8.890;2023-07-08T05:21:09;16.80;99.90
26224;DHT22;14820;48.682;8.890;2023-07-08T05:23:35;16.80;99.90
26224;DHT22;14820;48.682;8.890;2023-07-08T05:26:01;16.90;99.90
26224;DHT22;14820;48.682;8.890;2023-07-08T05:28:27;17.00;99.90
26224;DHT22;14820;48.682;8.890;2023-07-08T05:30:54;17.00;99.90
26224;DHT22;14820;48.682;8.890;2023-07-08T05:33:26;17.20;99.90
26224;DHT22;14820;48.682;8.890;2023-07-08T05:35:53;17.20;99.90
26224;DHT22;14820;48.682;8.890;2023-07-08T05:38:19;17.30;99.90
26224;DHT22;14820;48.682;8.890;2023-07-08T05:40:53;17.30;99.90
26224;DHT22;14820;48.682;8.890;2023-07-08T05:43:20;17.40;99.90
26224;DHT22;14820;48.682;8.890;2023-07-08T05:45:46;17.40;99.90
26224;DHT22;14820;48.682;8.890;2023-07-08T05:48:11;17.50;99.90
26224;DHT22;14820;48.682;8.890;2023-07-08T05:50:37;17.50;99.90
26224;DHT22;14820;48.682;8.890;2023-07-08T05:53:04;17.60;99.90
26224;DHT22;14820;48.682;8.890;2023-07-08T05:55:31;17.70;99.90
26224;DHT22;14820;48.682;8.890;2023-07-08T05:57:57;17.70;99.90
26224;DHT22;14820;48.682;8.890;2023-07-08T06:00:23;17.80;99.90
26224;DHT22;14820;48.682;8.890;2023-07-08T06:02:48;17.80;99.90
26224;DHT22;14820;48.682;8.890;2023-07-08T06:05:14;17.90;99.90
26224;DHT22;14820;48.682;8.890;2023-07-08T06:07:39;18.00;99.90
26224;DHT22;14820;48.682;8.890;2023-07-08T06:10:05;18.20;99.90
26224;DHT22;14820;48.682;8.890;2023-07-08T06:12:31;18.20;99.90
26224;DHT22;14820;48.682;8.890;2023-07-08T06:14:57;18.30;99.90
26224;DHT22;14820;48.682;8.890;2023-07-08T06:17:22;18.40;99.90
26224;DHT22;14820;48.682;8.890;2023-07-08T06:19:48;18.50;99.90
26224;DHT22;14820;48.682;8.890;2023-07-08T06:22:14;18.60;99.90
26224;DHT22;14820;48.682;8.890;2023-07-08T06:24:40;18.60;99.90
26224;DHT22;14820;48.682;8.890;2023-07-08T06:27:06;18.70;99.90
26224;DHT22;14820;48.682;8.890;2023-07-08T06:29:33;18.80;99.90
26224;DHT22;14820;48.682;8.890;2023-07-08T06:31:59;18.90;99.90
26224;DHT22;14820;48.682;8.890;2023-07-08T06:34:25;19.10;99.90
26224;DHT22;14820;48.682;8.890;2023-07-08T06:36:51;19.10;99.90
26224;DHT22;14820;48.682;8.890;2023-07-08T06:39:17;19.30;99.90
26224;DHT22;14820;48.682;8.890;2023-07-08T06:41:43;19.40;99.90
26224;DHT22;14820;48.682;8.890;2023-07-08T06:44:09;19.70;99.90
26224;DHT22;14820;48.682;8.890;2023-07-08T06:46:35;19.80;99.90
26224;DHT22;14820;48.682;8.890;2023-07-08T06:49:00;19.90;99.90
26224;DHT22;14820;48.682;8.890;2023-07-08T06:51:26;20.00;99.90
26224;DHT22;14820;48.682;8.890;2023-07-08T06:53:52;20.10;99.90
26224;DHT22;14820;48.682;8.890;2023-07-08T06:56:18;20.20;99.90
26224;DHT22;14820;48.682;8.890;2023-07-08T06:58:43;20.20;99.90
26224;DHT22;14820;48.682;8.890;2023-07-08T07:01:09;20.30;99.90
26224;DHT22;14820;48.682;8.890;2023-07-08T07:03:35;20.30;99.90
26224;DHT22;14820;48.682;8.890;2023-07-08T07:06:00;20.40;99.90
26224;DHT22;14820;48.682;8.890;2023-07-08T07:08:26;20.40;99.90
26224;DHT22;14820;48.682;8.890;2023-07-08T07:10:52;20.50;99.90
26224;DHT22;14820;48.682;8.890;2023-07-08T07:13:17;20.60;99.90
26224;DHT22;14820;48.682;8.890;2023-07-08T07:15:43;20.70;99.90
26224;DHT22;14820;48.682;8.890;2023-07-08T07:18:08;20.70;99.90
26224;DHT22;14820;48.682;8.890;2023-07-08T07:20:36;20.70;99.90
26224;DHT22;14820;48.682;8.890;2023-07-08T07:23:02;20.80;99.90
26224;DHT22;14820;48.682;8.890;2023-07-08T07:25:28;20.80;99.90
26224;DHT22;14820;48.682;8.890;2023-07-08T07:27:53;20.80;99.90
26224;DHT22;14820;48.682;8.890;2023-07-08T07:30:19;20.80;99.90
26224;DHT22;14820;48.682;8.890;2023-07-08T07:32:45;20.80;99.90
26224;DHT22;14820;48.682;8.890;2023-07-08T07:35:12;20.90;99.90
26224;DHT22;14820;48.682;8.890;2023-07-08T07:37:40;21.00;99.90
26224;DHT22;14820;48.682;8.890;2023-07-08T07:40:13;21.10;99.90
26224;DHT22;14820;48.682;8.890;2023-07-08T07:42:41;21.10;99.90
26224;DHT22;14820;48.682;8.890;2023-07-08T07:45:08;21.10;99.90
26224;DHT22;14820;48.682;8.890;2023-07-08T07:47:34;21.30;99.90
26224;DHT22;14820;48.682;8.890;2023-07-08T07:50:00;21.30;99.90
26224;DHT22;14820;48.682;8.890;2023-07-08T07:52:26;21.40;99.90
26224;DHT22;14820;48.682;8.890;2023-07-08T07:54:52;21.40;99.90
26224;DHT22;14820;48.682;8.890;2023-07-08T07:57:19;21.50;99.90
26224;DHT22;14820;48.682;8.890;2023-07-08T07:59:46;21.50;99.90
26224;DHT22;14820;48.682;8.890;2023-07-08T08:02:11;21.50;99.90
26224;DHT22;14820;48.682;8.890;2023-07-08T08:04:37;21.50;99.90
26224;DHT22;14820;48.682;8.890;2023-07-08T08:07:03;21.50;99.90
26224;DHT22;14820;48.682;8.890;2023-07-08T08:09:29;21.60;99.90
26224;DHT22;14820;48.682;8.890;2023-07-08T08:11:55;21.70;99.90
26224;DHT22;14820;48.682;8.890;2023-07-08T08:14:21;21.80;99.90
26224;DHT22;14820;48.682;8.890;2023-07-08T08:16:47;21.90;99.90
26224;DHT22;14820;48.682;8.890;2023-07-08T08:19:13;22.00;99.90
26224;DHT22;14820;48.682;8.890;2023-07-08T08:21:38;22.00;99.90
26224;DHT22;14820;48.682;8.890;2023-07-08T08:24:04;22.10;99.90
26224;DHT22;14820;48.682;8.890;2023-07-08T08:26:30;22.20;99.90
26224;DHT22;14820;48.682;8.890;2023-07-08T08:28:56;22.40;99.90
26224;DHT22;14820;48.682;8.890;2023-07-08T08:31:22;22.50;99.90
26224;DHT22;14820;48.682;8.890;2023-07-08T08:33:47;22.50;99.90
26224;DHT22;14820;48.682;8.890;2023-07-08T08:36:13;22.70;99.90
26224;DHT22;14820;48.682;8.890;2023-07-08T08:38:38;22.70;99.90
26224;DHT22;14820;48.682;8.890;2023-07-08T08:41:12;22.80;99.90
26224;DHT22;14820;48.682;8.890;2023-07-08T08:43:39;22.80;99.90
26224;DHT22;14820;48.682;8.890;2023-07-08T08:49:13;22.90;99.90
26224;DHT22;14820;48.682;8.890;2023-07-08T08:51:40;23.20;99.90
26224;DHT22;14820;48.682;8.890;2023-07-08T08:54:07;23.30;99.90
26224;DHT22;14820;48.682;8.890;2023-07-08T08:59:42;23.70;99.90
26224;DHT22;14820;48.682;8.890;2023-07-08T09:04:48;23.80;99.90
26224;DHT22;14820;48.682;8.890;2023-07-08T09:07:17;23.80;99.90
26224;DHT22;14820;48.682;8.890;2023-07-08T09:09:52;23.80;99.90
26224;DHT22;14820;48.682;8.890;2023-07-08T09:12:25;23.80;99.90
26224;DHT22;14820;48.682;8.890;2023-07-08T09:14:51;23.80;99.90
26224;DHT22;14820;48.682;8.890;2023-07-08T09:17:31;23.90;99.90
26224;DHT22;14820;48.682;8.890;2023-07-08T09:25:15;24.00;99.90
26224;DHT22;14820;48.682;8.890;2023-07-08T09:27:46;24.10;99.90
26224;DHT22;14820;48.682;8.890;2023-07-08T09:30:17;24.20;99.90
26224;DHT22;14820;48.682;8.890;2023-07-08T09:32:43;24.40;99.90
26224;DHT22;14820;48.682;8.890;2023-07-08T09:35:16;24.50;99.90
26224;DHT22;14820;48.682;8.890;2023-07-08T09:37:46;24.60;99.70
26224;DHT22;14820;48.682;8.890;2023-07-08T09:40:18;24.70;99.70
26224;DHT22;14820;48.682;8.890;2023-07-08T09:42:49;24.90;99.90
26224;DHT22;14820;48.682;8.890;2023-07-08T09:45:19;24.90;99.90
26224;DHT22;14820;48.682;8.890;2023-07-08T09:47:45;25.10;99.90
26224;DHT22;14820;48.682;8.890;2023-07-08T09:52:47;25.30;99.90
26224;DHT22;14820;48.682;8.890;2023-07-08T09:55:13;25.40;99.20
26224;DHT22;14820;48.682;8.890;2023-07-08T09:57:39;25.50;99.10
26224;DHT22;14820;48.682;8.890;2023-07-08T10:00:12;25.60;98.80
26224;DHT22;14820;48.682;8.890;2023-07-08T10:02:58;25.70;98.20
26224;DHT22;14820;48.682;8.890;2023-07-08T10:05:38;25.70;97.30
26224;DHT22;14820;48.682;8.890;2023-07-08T10:08:18;25.90;97.10
26224;DHT22;14820;48.682;8.890;2023-07-08T10:10:46;26.00;96.60
26224;DHT22;14820;48.682;8.890;2023-07-08T10:15:51;26.30;95.30
26224;DHT22;14820;48.682;8.890;2023-07-08T10:18:22;26.40;94.20
26224;DHT22;14820;48.682;8.890;2023-07-08T10:26:36;26.70;91.10
26224;DHT22;14820;48.682;8.890;2023-07-08T10:29:15;26.80;91.30
26224;DHT22;14820;48.682;8.890;2023-07-08T10:37:24;27.00;91.50
26224;DHT22;14820;48.682;8.890;2023-07-08T10:39:59;27.10;92.00
26224;DHT22;14820;48.682;8.890;2023-07-08T10:54:20;27.30;90.10
26224;DHT22;14820;48.682;8.890;2023-07-08T11:05:42;27.60;90.80
26224;DHT22;14820;48.682;8.890;2023-07-08T11:08:24;27.70;90.90
26224;DHT22;14820;48.682;8.890;2023-07-08T11:13:38;27.90;83.80
26224;DHT22;14820;48.682;8.890;2023-07-08T11:16:19;27.90;83.30
26224;DHT22;14820;48.682;8.890;2023-07-08T11:18:54;27.90;86.10
26224;DHT22;14820;48.682;8.890;2023-07-08T11:23:50;28.00;86.10
26224;DHT22;14820;48.682;8.890;2023-07-08T11:26:33;28.10;85.30
26224;DHT22;14820;48.682;8.890;2023-07-08T11:29:05;28.10;85.10
26224;DHT22;14820;48.682;8.890;2023-07-08T11:31:37;28.10;84.40
26224;DHT22;14820;48.682;8.890;2023-07-08T11:34:03;28.20;85.00
26224;DHT22;14820;48.682;8.890;2023-07-08T11:36:30;28.20;83.50
26224;DHT22;14820;48.682;8.890;2023-07-08T11:38:56;28.30;83.40
26224;DHT22;14820;48.682;8.890;2023-07-08T11:41:26;28.40;82.50
26224;DHT22;14820;48.682;8.890;2023-07-08T11:44:04;28.40;82.00
26224;DHT22;14820;48.682;8.890;2023-07-08T11:46:32;28.50;81.40
26224;DHT22;14820;48.682;8.890;2023-07-08T11:49:11;28.50;80.70
26224;DHT22;14820;48.682;8.890;2023-07-08T11:51:41;28.50;80.80
26224;DHT22;14820;48.682;8.890;2023-07-08T11:54:27;28.50;79.20
26224;DHT22;14820;48.682;8.890;2023-07-08T11:57:05;28.50;80.30
26224;DHT22;14820;48.682;8.890;2023-07-08T11:59:33;28.60;81.50
26224;DHT22;14820;48.682;8.890;2023-07-08T12:02:03;28.70;80.80
26224;DHT22;14820;48.682;8.890;2023-07-08T12:04:35;28.80;78.00
26224;DHT22;14820;48.682;8.890;2023-07-08T12:07:48;28.90;74.70
26224;DHT22;14820;48.682;8.890;2023-07-08T12:10:16;28.90;75.90
26224;DHT22;14820;48.682;8.890;2023-07-08T12:12:44;29.10;75.60
26224;DHT22;14820;48.682;8.890;2023-07-08T12:15:25;29.10;75.80
26224;DHT22;14820;48.682;8.890;2023-07-08T12:17:54;29.10;74.00
26224;DHT22;14820;48.682;8.890;2023-07-08T12:20:30;29.20;74.00
26224;DHT22;14820;48.682;8.890;2023-07-08T12:22:56;29.10;74.40
26224;DHT22;14820;48.682;8.890;2023-07-08T12:25:32;29.10;72.40
26224;DHT22;14820;48.682;8.890;2023-07-08T12:28:00;29.10;73.90
26224;DHT22;14820;48.682;8.890;2023-07-08T12:30:28;29.20;73.30
26224;DHT22;14820;48.682;8.890;2023-07-08T12:32:55;29.30;73.30
26224;DHT22;14820;48.682;8.890;2023-07-08T12:35:27;29.40;70.50
26224;DHT22;14820;48.682;8.890;2023-07-08T12:37:56;29.40;72.30
26224;DHT22;14820;48.682;8.890;2023-07-08T12:40:23;29.40;73.30
26224;DHT22;14820;48.682;8.890;2023-07-08T12:42:49;29.30;72.40
26224;DHT22;14820;48.682;8.890;2023-07-08T12:45:17;29.50;72.30
26224;DHT22;14820;48.682;8.890;2023-07-08T12:47:44;29.40;70.80
26224;DHT22;14820;48.682;8.890;2023-07-08T12:50:11;29.40;71.80
26224;DHT22;14820;48.682;8.890;2023-07-08T12:52:37;29.60;71.80
26224;DHT22;14820;48.682;8.890;2023-07-08T12:55:03;29.60;71.70
26224;DHT22;14820;48.682;8.890;2023-07-08T12:57:29;29.70;71.80
26224;DHT22;14820;48.682;8.890;2023-07-08T12:59:55;29.70;71.40
26224;DHT22;14820;48.682;8.890;2023-07-08T13:02:21;29.80;71.20
26224;DHT22;14820;48.682;8.890;2023-07-08T13:04:53;29.70;69.50
26224;DHT22;14820;48.682;8.890;2023-07-08T13:07:41;29.70;69.40
26224;DHT22;14820;48.682;8.890;2023-07-08T13:10:16;29.70;69.90
26224;DHT22;14820;48.682;8.890;2023-07-08T13:12:43;29.70;69.80
26224;DHT22;14820;48.682;8.890;2023-07-08T13:15:17;29.70;68.50
26224;DHT22;14820;48.682;8.890;2023-07-08T13:17:44;29.70;69.30
26224;DHT22;14820;48.682;8.890;2023-07-08T13:20:14;29.60;69.50
26224;DHT22;14820;48.682;8.890;2023-07-08T13:22:42;29.70;68.70
26224;DHT22;14820;48.682;8.890;2023-07-08T13:25:15;29.60;67.80
26224;DHT22;14820;48.682;8.890;2023-07-08T13:27:42;29.50;68.00
26224;DHT22;14820;48.682;8.890;2023-07-08T13:30:20;29.40;69.40
26224;DHT22;14820;48.682;8.890;2023-07-08T13:32:55;29.30;68.40
26224;DHT22;14820;48.682;8.890;2023-07-08T13:35:36;29.20;67.20
26224;DHT22;14820;48.682;8.890;2023-07-08T13:38:02;29.10;66.70
26224;DHT22;14820;48.682;8.890;2023-07-08T13:40:29;29.10;68.30
26224;DHT22;14820;48.682;8.890;2023-07-08T13:42:55;29.10;68.10
26224;DHT22;14820;48.682;8.890;2023-07-08T13:45:25;29.00;68.60
26224;DHT22;14820;48.682;8.890;2023-07-08T13:48:02;29.00;69.00
26224;DHT22;14820;48.682;8.890;2023-07-08T13:50:35;29.00;68.80
26224;DHT22;14820;48.682;8.890;2023-07-08T13:53:13;29.00;69.00
26224;DHT22;14820;48.682;8.890;2023-07-08T13:55:40;29.00;69.40
26224;DHT22;14820;48.682;8.890;2023-07-08T13:58:06;28.90;68.00
26224;DHT22;14820;48.682;8.890;2023-07-08T14:00:36;28.90;67.70
26224;DHT22;14820;48.682;8.890;2023-07-08T14:03:02;28.90;67.50
26224;DHT22;14820;48.682;8.890;2023-07-08T14:05:27;28.80;68.50
26224;DHT22;14820;48.682;8.890;2023-07-08T14:07:53;28.90;71.10
26224;DHT22;14820;48.682;8.890;2023-07-08T14:10:19;28.90;70.90
26224;DHT22;14820;48.682;8.890;2023-07-08T14:12:44;29.00;71.60
26224;DHT22;14820;48.682;8.890;2023-07-08T14:15:10;29.10;71.70
26224;DHT22;14820;48.682;8.890;2023-07-08T14:17:37;29.30;68.80
26224;DHT22;14820;48.682;8.890;2023-07-08T14:20:09;29.30;67.80
26224;DHT22;14820;48.682;8.890;2023-07-08T14:22:36;29.40;67.20
26224;DHT22;14820;48.682;8.890;2023-07-08T14:25:07;29.40;66.70
26224;DHT22;14820;48.682;8.890;2023-07-08T14:27:33;29.50;67.30
26224;DHT22;14820;48.682;8.890;2023-07-08T14:29:59;29.50;68.40
26224;DHT22;14820;48.682;8.890;2023-07-08T14:32:27;29.60;68.20
26224;DHT22;14820;48.682;8.890;2023-07-08T14:35:00;29.70;67.50
26224;DHT22;14820;48.682;8.890;2023-07-08T14:37:28;29.70;68.30
26224;DHT22;14820;48.682;8.890;2023-07-08T14:39:54;29.80;67.70
26224;DHT22;14820;48.682;8.890;2023-07-08T14:42:20;29.80;68.60
26224;DHT22;14820;48.682;8.890;2023-07-08T14:44:48;29.80;68.10
26224;DHT22;14820;48.682;8.890;2023-07-08T14:47:17;29.90;65.70
26224;DHT22;14820;48.682;8.890;2023-07-08T14:49:43;29.90;65.10
26224;DHT22;14820;48.682;8.890;2023-07-08T14:52:09;29.90;65.20
26224;DHT22;14820;48.682;8.890;2023-07-08T14:54:35;29.90;65.80
26224;DHT22;14820;48.682;8.890;2023-07-08T14:57:02;30.00;65.70
26224;DHT22;14820;48.682;8.890;2023-07-08T14:59:30;30.00;66.70
26224;DHT22;14820;48.682;8.890;2023-07-08T15:01:58;30.00;65.60
26224;DHT22;14820;48.682;8.890;2023-07-08T15:04:24;29.90;64.10
26224;DHT22;14820;48.682;8.890;2023-07-08T15:06:50;30.00;65.20
26224;DHT22;14820;48.682;8.890;2023-07-08T15:09:17;29.90;65.50
26224;DHT22;14820;48.682;8.890;2023-07-08T15:11:44;29.90;65.30
26224;DHT22;14820;48.682;8.890;2023-07-08T15:14:19;30.10;65.30
26224;DHT22;14820;48.682;8.890;2023-07-08T15:16:45;30.10;64.30
26224;DHT22;14820;48.682;8.890;2023-07-08T15:19:14;30.10;63.00
26224;DHT22;14820;48.682;8.890;2023-07-08T15:21:39;30.10;64.50
26224;DHT22;14820;48.682;8.890;2023-07-08T15:24:10;30.20;63.90
26224;DHT22;14820;48.682;8.890;2023-07-08T15:26:41;30.30;63.40
26224;DHT22;14820;48.682;8.890;2023-07-08T15:29:22;30.40;64.10
26224;DHT22;14820;48.682;8.890;2023-07-08T15:31:48;30.70;63.40
26224;DHT22;14820;48.682;8.890;2023-07-08T15:34:21;30.60;62.60
26224;DHT22;14820;48.682;8.890;2023-07-08T15:36:47;30.40;63.10
26224;DHT22;14820;48.682;8.890;2023-07-08T15:39:14;30.40;63.90
26224;DHT22;14820;48.682;8.890;2023-07-08T15:41:40;30.40;61.60
26224;DHT22;14820;48.682;8.890;2023-07-08T15:44:13;30.50;62.40
26224;DHT22;14820;48.682;8.890;2023-07-08T15:46:46;30.50;62.90
26224;DHT22;14820;48.682;8.890;2023-07-08T15:49:15;30.60;63.20
26224;DHT22;14820;48.682;8.890;2023-07-08T15:51:59;30.60;63.30
26224;DHT22;14820;48.682;8.890;2023-07-08T15:54:25;30.80;65.40
26224;DHT22;14820;48.682;8.890;2023-07-08T15:56:53;30.90;66.00
26224;DHT22;14820;48.682;8.890;2023-07-08T15:59:24;31.00;64.60
26224;DHT22;14820;48.682;8.890;2023-07-08T16:01:51;31.10;64.60
26224;DHT22;14820;48.682;8.890;2023-07-08T16:04:23;31.00;64.90
26224;DHT22;14820;48.682;8.890;2023-07-08T16:06:50;31.10;65.60
26224;DHT22;14820;48.682;8.890;2023-07-08T16:09:16;31.20;64.70
26224;DHT22;14820;48.682;8.890;2023-07-08T16:11:42;31.20;63.90
26224;DHT22;14820;48.682;8.890;2023-07-08T16:14:15;31.20;64.50
26224;DHT22;14820;48.682;8.890;2023-07-08T16:16:42;31.00;63.20
26224;DHT22;14820;48.682;8.890;2023-07-08T16:19:10;30.80;63.40
26224;DHT22;14820;48.682;8.890;2023-07-08T16:21:36;30.60;63.70
26224;DHT22;14820;48.682;8.890;2023-07-08T16:24:02;30.50;64.90
26224;DHT22;14820;48.682;8.890;2023-07-08T16:26:29;30.50;65.00
26224;DHT22;14820;48.682;8.890;2023-07-08T16:28:55;30.50;65.10
26224;DHT22;14820;48.682;8.890;2023-07-08T16:31:23;30.50;64.30
26224;DHT22;14820;48.682;8.890;2023-07-08T16:33:50;30.50;64.50
26224;DHT22;14820;48.682;8.890;2023-07-08T16:36:21;30.50;64.20
26224;DHT22;14820;48.682;8.890;2023-07-08T16:38:47;30.50;65.00